sensor_id;sensor_type;location;lat;lon;timestamp;temperature;humidity
61392;DHT22;47261;52.892;5.738;2023-12-29T00:00:38;10.20;99.90
61392;DHT22;47261;52.892;5.738;2023-12-29T00:03:03;10.20;99.90
61392;DHT22;47261;52.892;5.738;2023-12-29T00:05:29;10.30;99.90
61392;DHT22;47261;52.892;5.738;2023-12-29T00:07:56;10.30;99.90
61392;DHT22;47261;52.892;5.738;2023-12-29T00:10:21;10.30;99.90
61392;DHT22;47261;52.892;5.738;2023-12-29T00:12:47;10.30;99.90
61392;DHT22;47261;52.892;5.738;2023-12-29T00:15:12;10.30;99.90
61392;DHT22;47261;52.892;5.738;2023-12-29T00:17:38;10.30;99.90
61392;DHT22;47261;52.892;5.738;2023-12-29T00:20:06;10.30;99.90
61392;DHT22;47261;52.892;5.738;2023-12-29T00:22:34;10.30;99.90
61392;DHT22;47261;52.892;5.738;2023-12-29T00:24:59;10.30;99.90
61392;DHT22;47261;52.892;5.738;2023-12-29T00:27:25;10.30;99.90
61392;DHT22;47261;52.892;5.738;2023-12-29T00:29:50;10.30;99.90
61392;DHT22;47261;52.892;5.738;2023-12-29T00:32:16;10.30;99.90
61392;DHT22;47261;52.892;5.738;2023-12-29T00:34:42;10.20;99.90
61392;DHT22;47261;52.892;5.738;2023-12-29T00:37:07;10.20;99.90
61392;DHT22;47261;52.892;5.738;2023-12-29T00:39:33;10.20;99.90
61392;DHT22;47261;52.892;5.738;2023-12-29T00:42:18;10.20;99.90
61392;DHT22;47261;52.892;5.738;2023-12-29T00:44:44;10.20;99.90
61392;DHT22;47261;52.892;5.738;2023-12-29T00:47:09;10.20;99.90
61392;DHT22;47261;52.892;5.738;2023-12-29T00:49:38;10.20;99.90
61392;DHT22;47261;52.892;5.738;2023-12-29T00:52:04;10.20;99.90
61392;DHT22;47261;52.892;5.738;2023-12-29T00:54:30;10.20;99.90
61392;DHT22;47261;52.892;5.738;2023-12-29T00:56:55;10.20;99.90
61392;DHT22;47261;52.892;5.738;2023-12-29T00:59:21;10.20;99.90
61392;DHT22;47261;52.892;5.738;2023-12-29T01:01:47;10.20;99.90
61392;DHT22;47261;52.892;5.738;2023-12-29T01:04:12;10.20;99.90
61392;DHT22;47261;52.892;5.738;2023-12-29T01:06:38;10.20;99.90
61392;DHT22;47261;52.892;5.738;2023-12-29T01:09:05;10.20;99.90
61392;DHT22;47261;52.892;5.738;2023-12-29T01:11:31;10.20;99.90
61392;DHT22;47261;52.892;5.738;2023-12-29T01:13:57;10.20;99.90
61392;DHT22;47261;52.892;5.738;2023-12-29T01:16:22;10.20;99.90
61392;DHT22;47261;52.892;5.738;2023-12-29T01:18:48;10.20;99.90
61392;DHT22;47261;52.892;5.738;2023-12-29T01:21:13;10.20;99.90
61392;DHT22;47261;52.892;5.738;2023-12-29T01:23:39;10.30;99.90
61392;DHT22;47261;52.892;5.738;2023-12-29T01:26:04;10.30;99.90
61392;DHT22;47261;52.892;5.738;2023-12-29T01:28:30;10.30;99.90
61392;DHT22;47261;52.892;5.738;2023-12-29T01:30:56;10.40;99.90
61392;DHT22;47261;52.892;5.738;2023-12-29T01:33:21;10.40;99.90
61392;DHT22;47261;52.892;5.738;2023-12-29T01:35:47;10.40;99.90
61392;DHT22;47261;52.892;5.738;2023-12-29T01:38:13;10.40;99.90
61392;DHT22;47261;52.892;5.738;2023-12-29T01:40:45;10.50;99.90
61392;DHT22;47261;52.892;5.738;2023-12-29T01:43:11;10.50;99.90
61392;DHT22;47261;52.892;5.738;2023-12-29T01:45:37;10.50;99.90
61392;DHT22;47261;52.892;5.738;2023-12-29T01:48:03;10.50;99.90
61392;DHT22;47261;52.892;5.738;2023-12-29T01:50:29;10.50;99.90
61392;DHT22;47261;52.892;5.738;2023-12-29T01:52:55;10.50;99.90
61392;DHT22;47261;52.892;5.738;2023-12-29T01:55:24;10.50;99.90
61392;DHT22;47261;52.892;5.738;2023-12-29T01:57:51;10.50;99.90
61392;DHT22;47261;52.892;5.738;2023-12-29T02:00:18;10.50;99.90
61392;DHT22;47261;52.892;5.738;2023-12-29T02:02:45;10.50;99.90
61392;DHT22;47261;52.892;5.738;2023-12-29T02:05:15;10.50;99.90
61392;DHT22;47261;52.892;5.738;2023-12-29T02:07:42;10.50;99.90
61392;DHT22;47261;52.892;5.738;2023-12-29T02:10:08;10.50;99.90
61392;DHT22;47261;52.892;5.738;2023-12-29T02:12:35;10.40;99.90
61392;DHT22;47261;52.892;5.738;2023-12-29T02:15:04;10.40;99.90
61392;DHT22;47261;52.892;5.738;2023-12-29T02:17:38;10.40;99.90
61392;DHT22;47261;52.892;5.738;2023-12-29T02:20:05;10.30;99.90
61392;DHT22;47261;52.892;5.738;2023-12-29T02:22:32;10.30;99.90
61392;DHT22;47261;52.892;5.738;2023-12-29T02:24:58;10.30;99.90
61392;DHT22;47261;52.892;5.738;2023-12-29T02:27:57;10.30;99.90
61392;DHT22;47261;52.892;5.738;2023-12-29T02:30:47;10.40;99.90
61392;DHT22;47261;52.892;5.738;2023-12-29T02:33:19;10.40;99.90
61392;DHT22;47261;52.892;5.738;2023-12-29T02:35:45;10.40;99.90
61392;DHT22;47261;52.892;5.738;2023-12-29T02:38:12;10.40;99.90
61392;DHT22;47261;52.892;5.738;2023-12-29T02:40:38;10.40;99.90
61392;DHT22;47261;52.892;5.738;2023-12-29T02:43:04;10.40;99.90
61392;DHT22;47261;52.892;5.738;2023-12-29T02:45:30;10.50;99.90
61392;DHT22;47261;52.892;5.738;2023-12-29T02:47:56;10.50;99.90
61392;DHT22;47261;52.892;5.738;2023-12-29T02:50:21;10.50;99.90
61392;DHT22;47261;52.892;5.738;2023-12-29T02:52:47;10.50;99.90
61392;DHT22;47261;52.892;5.738;2023-12-29T02:55:13;10.50;99.90
61392;DHT22;47261;52.892;5.738;2023-12-29T02:57:38;10.50;99.90
61392;DHT22;47261;52.892;5.738;2023-12-29T03:00:05;10.50;99.90
61392;DHT22;47261;52.892;5.738;2023-12-29T03:02:31;10.50;99.90
61392;DHT22;47261;52.892;5.738;2023-12-29T03:04:58;10.50;99.90
61392;DHT22;47261;52.892;5.738;2023-12-29T03:07:24;10.50;99.90
61392;DHT22;47261;52.892;5.738;2023-12-29T03:09:49;10.60;99.90
61392;DHT22;47261;52.892;5.738;2023-12-29T03:12:15;10.50;99.90
61392;DHT22;47261;52.892;5.738;2023-12-29T03:14:40;10.50;99.90
61392;DHT22;47261;52.892;5.738;2023-12-29T03:17:06;10.50;99.90
61392;DHT22;47261;52.892;5.738;2023-12-29T03:19:32;10.50;99.90
61392;DHT22;47261;52.892;5.738;2023-12-29T03:21:57;10.50;99.90
61392;DHT22;47261;52.892;5.738;2023-12-29T03:24:23;10.50;99.90
61392;DHT22;47261;52.892;5.738;2023-12-29T03:26:49;10.50;99.90
61392;DHT22;47261;52.892;5.738;2023-12-29T03:29:14;10.40;99.90
61392;DHT22;47261;52.892;5.738;2023-12-29T03:31:40;10.50;99.90
61392;DHT22;47261;52.892;5.738;2023-12-29T03:34:06;10.50;99.90
61392;DHT22;47261;52.892;5.738;2023-12-29T03:36:32;10.50;99.90
61392;DHT22;47261;52.892;5.738;2023-12-29T03:38:58;10.50;99.90
61392;DHT22;47261;52.892;5.738;2023-12-29T03:41:23;10.50;99.90
61392;DHT22;47261;52.892;5.738;2023-12-29T03:43:49;10.40;99.90
61392;DHT22;47261;52.892;5.738;2023-12-29T03:46:18;10.50;99.90
61392;DHT22;47261;52.892;5.738;2023-12-29T03:48:45;10.40;99.90
61392;DHT22;47261;52.892;5.738;2023-12-29T03:51:10;10.40;99.90
61392;DHT22;47261;52.892;5.738;2023-12-29T03:53:36;10.40;99.90
61392;DHT22;47261;52.892;5.738;2023-12-29T03:56:06;10.40;99.90
61392;DHT22;47261;52.892;5.738;2023-12-29T03:58:32;10.40;99.90
61392;DHT22;47261;52.892;5.738;2023-12-29T04:00:58;10.40;99.90
61392;DHT22;47261;52.892;5.738;2023-12-29T04:03:23;10.40;99.90
61392;DHT22;47261;52.892;5.738;2023-12-29T04:05:49;10.30;99.90
61392;DHT22;47261;52.892;5.738;2023-12-29T04:08:14;10.30;99.90
61392;DHT22;47261;52.892;5.738;2023-12-29T04:10:40;10.30;99.90
61392;DHT22;47261;52.892;5.738;2023-12-29T04:13:06;10.30;99.90
61392;DHT22;47261;52.892;5.738;2023-12-29T04:15:31;10.20;99.90
61392;DHT22;47261;52.892;5.738;2023-12-29T04:17:57;10.20;99.90
61392;DHT22;47261;52.892;5.738;2023-12-29T04:20:23;10.20;99.90
61392;DHT22;47261;52.892;5.738;2023-12-29T04:22:49;10.20;99.90
61392;DHT22;47261;52.892;5.738;2023-12-29T04:25:15;10.20;99.90
61392;DHT22;47261;52.892;5.738;2023-12-29T04:27:41;10.20;99.90
61392;DHT22;47261;52.892;5.738;2023-12-29T04:30:07;10.20;99.90
61392;DHT22;47261;52.892;5.738;2023-12-29T04:32:32;10.20;99.90
61392;DHT22;47261;52.892;5.738;2023-12-29T04:34:58;10.20;99.90
61392;DHT22;47261;52.892;5.738;2023-12-29T04:37:24;10.30;99.90
61392;DHT22;47261;52.892;5.738;2023-12-29T04:39:49;10.30;99.90
61392;DHT22;47261;52.892;5.738;2023-12-29T04:42:15;10.30;99.90
61392;DHT22;47261;52.892;5.738;2023-12-29T04:44:42;10.30;99.90
61392;DHT22;47261;52.892;5.738;2023-12-29T04:47:07;10.30;99.90
61392;DHT22;47261;52.892;5.738;2023-12-29T04:49:33;10.30;99.90
61392;DHT22;47261;52.892;5.738;2023-12-29T04:51:59;10.30;99.90
61392;DHT22;47261;52.892;5.738;2023-12-29T04:54:25;10.30;99.90
61392;DHT22;47261;52.892;5.738;2023-12-29T04:56:51;10.30;99.90
61392;DHT22;47261;52.892;5.738;2023-12-29T04:59:17;10.30;99.90
61392;DHT22;47261;52.892;5.738;2023-12-29T05:01:42;10.30;99.90
61392;DHT22;47261;52.892;5.738;2023-12-29T05:04:08;10.30;99.90
61392;DHT22;47261;52.892;5.738;2023-12-29T05:06:33;10.30;99.90
61392;DHT22;47261;52.892;5.738;2023-12-29T05:08:59;10.30;99.90
61392;DHT22;47261;52.892;5.738;2023-12-29T05:11:25;10.30;99.90
61392;DHT22;47261;52.892;5.738;2023-12-29T05:13:50;10.30;99.90
61392;DHT22;47261;52.892;5.738;2023-12-29T05:16:16;10.30;99.90
61392;DHT22;47261;52.892;5.738;2023-12-29T05:18:42;10.30;99.90
61392;DHT22;47261;52.892;5.738;2023-12-29T05:21:17;10.30;99.90
61392;DHT22;47261;52.892;5.738;2023-12-29T05:23:44;10.30;99.90
61392;DHT22;47261;52.892;5.738;2023-12-29T05:26:10;10.30;99.90
61392;DHT22;47261;52.892;5.738;2023-12-29T05:28:36;10.30;99.90
61392;DHT22;47261;52.892;5.738;2023-12-29T05:31:01;10.30;99.90
61392;DHT22;47261;52.892;5.738;2023-12-29T05:33:33;10.30;99.90
61392;DHT22;47261;52.892;5.738;2023-12-29T05:35:59;10.40;99.90
61392;DHT22;47261;52.892;5.738;2023-12-29T05:38:31;10.40;99.90
61392;DHT22;47261;52.892;5.738;2023-12-29T05:40:57;10.40;99.90
61392;DHT22;47261;52.892;5.738;2023-12-29T05:43:23;10.40;99.90
61392;DHT22;47261;52.892;5.738;2023-12-29T05:45:48;10.50;99.90
61392;DHT22;47261;52.892;5.738;2023-12-29T05:48:14;10.50;99.90
61392;DHT22;47261;52.892;5.738;2023-12-29T05:50:40;10.50;99.90
61392;DHT22;47261;52.892;5.738;2023-12-29T05:53:05;10.50;99.90
61392;DHT22;47261;52.892;5.738;2023-12-29T05:55:32;10.50;99.90
61392;DHT22;47261;52.892;5.738;2023-12-29T05:57:57;10.50;99.90
61392;DHT22;47261;52.892;5.738;2023-12-29T06:00:23;10.50;99.90
61392;DHT22;47261;52.892;5.738;2023-12-29T06:02:49;10.50;99.90
61392;DHT22;47261;52.892;5.738;2023-12-29T06:05:15;10.50;99.90
61392;DHT22;47261;52.892;5.738;2023-12-29T06:07:41;10.50;99.90
61392;DHT22;47261;52.892;5.738;2023-12-29T06:10:07;10.50;99.90
61392;DHT22;47261;52.892;5.738;2023-12-29T06:12:34;10.50;99.90
61392;DHT22;47261;52.892;5.738;2023-12-29T06:14:59;10.50;99.90
61392;DHT22;47261;52.892;5.738;2023-12-29T06:17:25;10.50;99.90
61392;DHT22;47261;52.892;5.738;2023-12-29T06:19:51;10.40;99.90
61392;DHT22;47261;52.892;5.738;2023-12-29T06:22:16;10.40;99.90
61392;DHT22;47261;52.892;5.738;2023-12-29T06:24:42;10.40;99.90
61392;DHT22;47261;52.892;5.738;2023-12-29T06:27:11;10.40;99.90
61392;DHT22;47261;52.892;5.738;2023-12-29T06:29:37;10.40;99.90
61392;DHT22;47261;52.892;5.738;2023-12-29T06:32:03;10.40;99.90
61392;DHT22;47261;52.892;5.738;2023-12-29T06:34:29;10.40;99.90
61392;DHT22;47261;52.892;5.738;2023-12-29T06:36:55;10.30;99.90
61392;DHT22;47261;52.892;5.738;2023-12-29T06:39:20;10.30;99.90
61392;DHT22;47261;52.892;5.738;2023-12-29T06:41:46;10.30;99.90
61392;DHT22;47261;52.892;5.738;2023-12-29T06:44:12;10.30;99.90
61392;DHT22;47261;52.892;5.738;2023-12-29T06:46:38;10.40;99.90
61392;DHT22;47261;52.892;5.738;2023-12-29T06:49:04;10.30;99.90
61392;DHT22;47261;52.892;5.738;2023-12-29T06:51:29;10.30;99.90
61392;DHT22;47261;52.892;5.738;2023-12-29T06:53:55;10.30;99.90
61392;DHT22;47261;52.892;5.738;2023-12-29T06:56:21;10.40;99.90
61392;DHT22;47261;52.892;5.738;2023-12-29T06:58:47;10.40;99.90
61392;DHT22;47261;52.892;5.738;2023-12-29T07:01:13;10.40;99.90
61392;DHT22;47261;52.892;5.738;2023-12-29T07:03:39;10.40;99.90
61392;DHT22;47261;52.892;5.738;2023-12-29T07:06:05;10.40;99.90
61392;DHT22;47261;52.892;5.738;2023-12-29T07:08:31;10.40;99.90
61392;DHT22;47261;52.892;5.738;2023-12-29T07:10:56;10.40;99.90
61392;DHT22;47261;52.892;5.738;2023-12-29T07:13:22;10.40;99.90
61392;DHT22;47261;52.892;5.738;2023-12-29T07:15:47;10.50;99.90
61392;DHT22;47261;52.892;5.738;2023-12-29T07:18:14;10.50;99.90
61392;DHT22;47261;52.892;5.738;2023-12-29T07:20:40;10.50;99.90
61392;DHT22;47261;52.892;5.738;2023-12-29T07:23:05;10.40;99.90
61392;DHT22;47261;52.892;5.738;2023-12-29T07:25:31;10.40;99.90
61392;DHT22;47261;52.892;5.738;2023-12-29T07:27:57;10.40;99.90
61392;DHT22;47261;52.892;5.738;2023-12-29T07:30:22;10.50;99.90
61392;DHT22;47261;52.892;5.738;2023-12-29T07:32:48;10.50;99.90
61392;DHT22;47261;52.892;5.738;2023-12-29T07:35:14;10.40;99.90
61392;DHT22;47261;52.892;5.738;2023-12-29T07:37:43;10.50;99.90
61392;DHT22;47261;52.892;5.738;2023-12-29T07:40:13;10.50;99.90
61392;DHT22;47261;52.892;5.738;2023-12-29T07:42:42;10.50;99.90
61392;DHT22;47261;52.892;5.738;2023-12-29T07:45:10;10.50;99.90
61392;DHT22;47261;52.892;5.738;2023-12-29T07:47:36;10.50;99.90
61392;DHT22;47261;52.892;5.738;2023-12-29T07:50:02;10.50;99.90
61392;DHT22;47261;52.892;5.738;2023-12-29T07:52:28;10.50;99.90
61392;DHT22;47261;52.892;5.738;2023-12-29T07:54:53;10.50;99.90
61392;DHT22;47261;52.892;5.738;2023-12-29T07:57:19;10.50;99.90
61392;DHT22;47261;52.892;5.738;2023-12-29T07:59:44;10.50;99.90
61392;DHT22;47261;52.892;5.738;2023-12-29T08:02:10;10.50;99.90
61392;DHT22;47261;52.892;5.738;2023-12-29T08:04:36;10.50;99.90
61392;DHT22;47261;52.892;5.738;2023-12-29T08:07:02;10.50;99.90
61392;DHT22;47261;52.892;5.738;2023-12-29T08:09:28;10.50;99.90
61392;DHT22;47261;52.892;5.738;2023-12-29T08:11:54;10.50;99.90
61392;DHT22;47261;52.892;5.738;2023-12-29T08:14:19;10.50;99.90
61392;DHT22;47261;52.892;5.738;2023-12-29T08:16:45;10.50;99.90
61392;DHT22;47261;52.892;5.738;2023-12-29T08:19:11;10.50;99.90
61392;DHT22;47261;52.892;5.738;2023-12-29T08:21:36;10.50;99.90
61392;DHT22;47261;52.892;5.738;2023-12-29T08:24:02;10.50;99.90
61392;DHT22;47261;52.892;5.738;2023-12-29T08:26:28;10.50;99.90
61392;DHT22;47261;52.892;5.738;2023-12-29T08:28:54;10.50;99.90
61392;DHT22;47261;52.892;5.738;2023-12-29T08:31:20;10.50;99.90
61392;DHT22;47261;52.892;5.738;2023-12-29T08:33:47;10.50;99.90
61392;DHT22;47261;52.892;5.738;2023-12-29T08:36:13;10.50;99.90
61392;DHT22;47261;52.892;5.738;2023-12-29T08:38:39;10.50;99.90
61392;DHT22;47261;52.892;5.738;2023-12-29T08:41:05;10.60;99.90
61392;DHT22;47261;52.892;5.738;2023-12-29T08:43:30;10.60;99.90
61392;DHT22;47261;52.892;5.738;2023-12-29T08:45:56;10.60;99.90
61392;DHT22;47261;52.892;5.738;2023-12-29T08:48:22;10.60;99.90
61392;DHT22;47261;52.892;5.738;2023-12-29T08:50:49;10.60;99.90
61392;DHT22;47261;52.892;5.738;2023-12-29T08:53:14;10.60;99.90
61392;DHT22;47261;52.892;5.738;2023-12-29T08:55:41;10.60;99.90
61392;DHT22;47261;52.892;5.738;2023-12-29T08:58:07;10.60;99.90
61392;DHT22;47261;52.892;5.738;2023-12-29T09:00:33;10.60;99.90
61392;DHT22;47261;52.892;5.738;2023-12-29T09:02:59;10.70;99.90
61392;DHT22;47261;52.892;5.738;2023-12-29T09:05:25;10.70;99.90
61392;DHT22;47261;52.892;5.738;2023-12-29T09:07:51;10.70;99.90
61392;DHT22;47261;52.892;5.738;2023-12-29T09:10:16;10.70;99.90
61392;DHT22;47261;52.892;5.738;2023-12-29T09:12:43;10.70;99.90
61392;DHT22;47261;52.892;5.738;2023-12-29T09:15:09;10.70;99.90
61392;DHT22;47261;52.892;5.738;2023-12-29T09:17:35;10.70;99.90
61392;DHT22;47261;52.892;5.738;2023-12-29T09:20:01;10.70;99.90
61392;DHT22;47261;52.892;5.738;2023-12-29T09:22:26;10.70;99.90
61392;DHT22;47261;52.892;5.738;2023-12-29T09:24:54;10.70;99.90
61392;DHT22;47261;52.892;5.738;2023-12-29T09:27:20;10.70;99.90
61392;DHT22;47261;52.892;5.738;2023-12-29T09:29:45;10.70;99.90
61392;DHT22;47261;52.892;5.738;2023-12-29T09:32:11;10.70;99.90
61392;DHT22;47261;52.892;5.738;2023-12-29T09:34:36;10.80;99.90
61392;DHT22;47261;52.892;5.738;2023-12-29T09:37:02;10.80;99.90
61392;DHT22;47261;52.892;5.738;2023-12-29T09:39:28;10.70;99.90
61392;DHT22;47261;52.892;5.738;2023-12-29T09:41:58;10.80;99.90
61392;DHT22;47261;52.892;5.738;2023-12-29T09:44:25;10.80;99.90
61392;DHT22;47261;52.892;5.738;2023-12-29T09:46:54;10.90;99.90
61392;DHT22;47261;52.892;5.738;2023-12-29T09:49:19;10.90;99.90
61392;DHT22;47261;52.892;5.738;2023-12-29T09:51:45;10.90;99.90
61392;DHT22;47261;52.892;5.738;2023-12-29T09:54:12;10.90;99.90
61392;DHT22;47261;52.892;5.738;2023-12-29T09:56:39;10.90;99.90
61392;DHT22;47261;52.892;5.738;2023-12-29T09:59:06;10.90;99.90
61392;DHT22;47261;52.892;5.738;2023-12-29T10:01:34;10.90;99.90
61392;DHT22;47261;52.892;5.738;2023-12-29T10:04:01;10.90;99.90
61392;DHT22;47261;52.892;5.738;2023-12-29T10:06:30;10.90;99.90
61392;DHT22;47261;52.892;5.738;2023-12-29T10:08:57;10.90;99.90
61392;DHT22;47261;52.892;5.738;2023-12-29T10:11:24;11.00;99.90
61392;DHT22;47261;52.892;5.738;2023-12-29T10:13:54;11.00;99.90
61392;DHT22;47261;52.892;5.738;2023-12-29T10:16:49;11.00;99.90
61392;DHT22;47261;52.892;5.738;2023-12-29T10:19:30;11.00;99.90
61392;DHT22;47261;52.892;5.738;2023-12-29T10:22:24;11.00;99.90
61392;DHT22;47261;52.892;5.738;2023-12-29T10:24:51;10.90;99.90
61392;DHT22;47261;52.892;5.738;2023-12-29T10:27:17;11.00;99.90
61392;DHT22;47261;52.892;5.738;2023-12-29T10:29:43;11.00;99.90
61392;DHT22;47261;52.892;5.738;2023-12-29T10:32:09;11.00;99.90
61392;DHT22;47261;52.892;5.738;2023-12-29T10:34:35;11.00;99.90
61392;DHT22;47261;52.892;5.738;2023-12-29T10:37:01;11.00;99.90
61392;DHT22;47261;52.892;5.738;2023-12-29T10:39:35;11.00;99.90
61392;DHT22;47261;52.892;5.738;2023-12-29T10:42:06;11.00;99.90
61392;DHT22;47261;52.892;5.738;2023-12-29T10:44:33;11.00;99.90
61392;DHT22;47261;52.892;5.738;2023-12-29T10:47:10;11.10;99.90
61392;DHT22;47261;52.892;5.738;2023-12-29T10:49:37;11.00;99.90
61392;DHT22;47261;52.892;5.738;2023-12-29T10:52:13;11.00;99.90
61392;DHT22;47261;52.892;5.738;2023-12-29T10:54:40;11.00;99.90
61392;DHT22;47261;52.892;5.738;2023-12-29T10:57:05;11.00;99.90
61392;DHT22;47261;52.892;5.738;2023-12-29T10:59:31;11.00;99.90
61392;DHT22;47261;52.892;5.738;2023-12-29T11:01:56;10.90;99.90
61392;DHT22;47261;52.892;5.738;2023-12-29T11:04:26;10.90;99.90
61392;DHT22;47261;52.892;5.738;2023-12-29T11:06:51;10.80;99.90
61392;DHT22;47261;52.892;5.738;2023-12-29T11:09:30;10.80;99.90
61392;DHT22;47261;52.892;5.738;2023-12-29T11:12:03;10.70;99.90
61392;DHT22;47261;52.892;5.738;2023-12-29T11:14:30;10.70;99.90
61392;DHT22;47261;52.892;5.738;2023-12-29T11:16:56;10.70;99.90
61392;DHT22;47261;52.892;5.738;2023-12-29T11:19:23;10.70;99.90
61392;DHT22;47261;52.892;5.738;2023-12-29T11:21:53;10.70;99.90
61392;DHT22;47261;52.892;5.738;2023-12-29T11:24:20;10.70;99.90
61392;DHT22;47261;52.892;5.738;2023-12-29T11:26:45;10.70;99.90
61392;DHT22;47261;52.892;5.738;2023-12-29T11:29:12;10.70;99.90
61392;DHT22;47261;52.892;5.738;2023-12-29T11:31:38;10.70;99.90
61392;DHT22;47261;52.892;5.738;2023-12-29T11:34:30;10.70;99.90
61392;DHT22;47261;52.892;5.738;2023-12-29T11:37:15;10.70;99.90
61392;DHT22;47261;52.892;5.738;2023-12-29T11:39:52;10.70;99.90
61392;DHT22;47261;52.892;5.738;2023-12-29T11:42:27;10.60;99.90
61392;DHT22;47261;52.892;5.738;2023-12-29T11:44:56;10.60;99.90
61392;DHT22;47261;52.892;5.738;2023-12-29T11:47:38;10.60;99.90
61392;DHT22;47261;52.892;5.738;2023-12-29T11:50:04;10.50;99.90
61392;DHT22;47261;52.892;5.738;2023-12-29T11:52:37;10.50;99.90
61392;DHT22;47261;52.892;5.738;2023-12-29T11:55:13;10.50;99.90
61392;DHT22;47261;52.892;5.738;2023-12-29T11:57:43;10.40;99.90
61392;DHT22;47261;52.892;5.738;2023-12-29T12:00:10;10.40;99.90
61392;DHT22;47261;52.892;5.738;2023-12-29T12:02:36;10.30;99.90
61392;DHT22;47261;52.892;5.738;2023-12-29T12:05:02;10.30;99.90
61392;DHT22;47261;52.892;5.738;2023-12-29T12:12:58;10.40;99.90
61392;DHT22;47261;52.892;5.738;2023-12-29T12:17:56;10.40;99.90
61392;DHT22;47261;52.892;5.738;2023-12-29T12:20:22;10.40;99.90
61392;DHT22;47261;52.892;5.738;2023-12-29T12:23:02;10.40;99.90
61392;DHT22;47261;52.892;5.738;2023-12-29T12:25:31;10.50;99.90
61392;DHT22;47261;52.892;5.738;2023-12-29T12:28:01;10.50;99.90
61392;DHT22;47261;52.892;5.738;2023-12-29T12:30:30;10.50;99.90
61392;DHT22;47261;52.892;5.738;2023-12-29T12:33:00;10.50;99.90
61392;DHT22;47261;52.892;5.738;2023-12-29T12:35:27;10.50;99.90
61392;DHT22;47261;52.892;5.738;2023-12-29T12:38:13;10.50;99.90
61392;DHT22;47261;52.892;5.738;2023-12-29T12:40:39;10.50;99.90
61392;DHT22;47261;52.892;5.738;2023-12-29T12:43:05;10.50;99.90
61392;DHT22;47261;52.892;5.738;2023-12-29T12:45:41;10.50;99.90
61392;DHT22;47261;52.892;5.738;2023-12-29T12:48:28;10.60;99.90
61392;DHT22;47261;52.892;5.738;2023-12-29T12:50:57;10.60;99.90
61392;DHT22;47261;52.892;5.738;2023-12-29T12:53:26;10.60;99.90
61392;DHT22;47261;52.892;5.738;2023-12-29T12:55:52;10.60;99.90
61392;DHT22;47261;52.892;5.738;2023-12-29T12:58:20;10.60;99.90
61392;DHT22;47261;52.892;5.738;2023-12-29T13:00:49;10.70;99.90
61392;DHT22;47261;52.892;5.738;2023-12-29T13:03:15;10.70;99.90
61392;DHT22;47261;52.892;5.738;2023-12-29T13:05:42;10.70;99.90
61392;DHT22;47261;52.892;5.738;2023-12-29T13:08:08;10.60;99.90
61392;DHT22;47261;52.892;5.738;2023-12-29T13:10:34;10.60;99.90
61392;DHT22;47261;52.892;5.738;2023-12-29T13:13:05;10.50;99.90
61392;DHT22;47261;52.892;5.738;2023-12-29T13:15:30;10.50;99.90
61392;DHT22;47261;52.892;5.738;2023-12-29T13:17:56;10.40;99.90
61392;DHT22;47261;52.892;5.738;2023-12-29T13:20:22;10.30;99.90
61392;DHT22;47261;52.892;5.738;2023-12-29T13:22:49;10.30;99.90
61392;DHT22;47261;52.892;5.738;2023-12-29T13:25:25;10.20;99.90
61392;DHT22;47261;52.892;5.738;2023-12-29T13:27:52;10.20;99.90
61392;DHT22;47261;52.892;5.738;2023-12-29T13:30:19;10.20;99.90
61392;DHT22;47261;52.892;5.738;2023-12-29T13:32:47;10.10;99.90
61392;DHT22;47261;52.892;5.738;2023-12-29T13:35:37;10.10;99.90
61392;DHT22;47261;52.892;5.738;2023-12-29T13:38:25;10.10;99.90
61392;DHT22;47261;52.892;5.738;2023-12-29T13:40:57;10.10;99.90
61392;DHT22;47261;52.892;5.738;2023-12-29T13:43:24;10.00;99.90
61392;DHT22;47261;52.892;5.738;2023-12-29T13:45:51;10.10;99.90
61392;DHT22;47261;52.892;5.738;2023-12-29T13:48:17;10.00;99.90
61392;DHT22;47261;52.892;5.738;2023-12-29T13:50:49;10.00;99.90
61392;DHT22;47261;52.892;5.738;2023-12-29T13:53:18;10.00;99.90
61392;DHT22;47261;52.892;5.738;2023-12-29T13:55:44;10.10;99.90
61392;DHT22;47261;52.892;5.738;2023-12-29T13:58:10;10.10;99.90
61392;DHT22;47261;52.892;5.738;2023-12-29T14:00:38;10.10;99.90
61392;DHT22;47261;52.892;5.738;2023-12-29T14:03:22;10.10;99.90
61392;DHT22;47261;52.892;5.738;2023-12-29T14:05:55;10.00;99.90
61392;DHT22;47261;52.892;5.738;2023-12-29T14:08:32;10.00;99.90
61392;DHT22;47261;52.892;5.738;2023-12-29T14:11:07;10.00;99.90
61392;DHT22;47261;52.892;5.738;2023-12-29T14:13:34;10.00;99.90
61392;DHT22;47261;52.892;5.738;2023-12-29T14:16:00;10.00;99.90
61392;DHT22;47261;52.892;5.738;2023-12-29T14:26:35;9.80;99.90
61392;DHT22;47261;52.892;5.738;2023-12-29T14:29:02;9.80;99.90
61392;DHT22;47261;52.892;5.738;2023-12-29T14:31:29;9.80;99.90
61392;DHT22;47261;52.892;5.738;2023-12-29T14:33:56;9.80;99.90
61392;DHT22;47261;52.892;5.738;2023-12-29T14:36:22;9.70;99.90
61392;DHT22;47261;52.892;5.738;2023-12-29T14:38:48;9.80;99.90
61392;DHT22;47261;52.892;5.738;2023-12-29T14:41:13;9.80;99.90
61392;DHT22;47261;52.892;5.738;2023-12-29T14:43:39;9.80;99.90
61392;DHT22;47261;52.892;5.738;2023-12-29T14:46:05;9.80;99.90
61392;DHT22;47261;52.892;5.738;2023-12-29T14:48:30;9.80;99.90
61392;DHT22;47261;52.892;5.738;2023-12-29T14:50:57;9.70;99.90
61392;DHT22;47261;52.892;5.738;2023-12-29T14:53:23;9.70;99.90
61392;DHT22;47261;52.892;5.738;2023-12-29T14:55:51;9.70;99.90
61392;DHT22;47261;52.892;5.738;2023-12-29T14:58:16;9.70;99.90
61392;DHT22;47261;52.892;5.738;2023-12-29T15:00:44;9.70;99.90
61392;DHT22;47261;52.892;5.738;2023-12-29T15:03:12;9.70;99.90
61392;DHT22;47261;52.892;5.738;2023-12-29T15:05:39;9.70;99.90
61392;DHT22;47261;52.892;5.738;2023-12-29T15:08:05;9.70;99.90
61392;DHT22;47261;52.892;5.738;2023-12-29T15:10:30;9.70;99.90
61392;DHT22;47261;52.892;5.738;2023-12-29T15:12:56;9.70;99.90
61392;DHT22;47261;52.892;5.738;2023-12-29T15:15:22;9.60;99.90
61392;DHT22;47261;52.892;5.738;2023-12-29T15:17:48;9.60;99.90
61392;DHT22;47261;52.892;5.738;2023-12-29T15:20:13;9.60;99.90
61392;DHT22;47261;52.892;5.738;2023-12-29T15:22:39;9.60;99.90
61392;DHT22;47261;52.892;5.738;2023-12-29T15:25:05;9.60;99.90
61392;DHT22;47261;52.892;5.738;2023-12-29T15:27:31;9.60;99.90
61392;DHT22;47261;52.892;5.738;2023-12-29T15:29:56;9.60;99.90
61392;DHT22;47261;52.892;5.738;2023-12-29T15:32:22;9.60;99.90
61392;DHT22;47261;52.892;5.738;2023-12-29T15:34:48;9.60;99.90
61392;DHT22;47261;52.892;5.738;2023-12-29T15:37:13;9.70;99.90
61392;DHT22;47261;52.892;5.738;2023-12-29T15:39:40;9.70;99.90
61392;DHT22;47261;52.892;5.738;2023-12-29T15:42:06;9.70;99.90
61392;DHT22;47261;52.892;5.738;2023-12-29T15:44:32;9.70;99.90
61392;DHT22;47261;52.892;5.738;2023-12-29T15:46:58;9.70;99.90
61392;DHT22;47261;52.892;5.738;2023-12-29T15:49:24;9.70;99.90